sensor_id;sensor_type;location;lat;lon;timestamp;P1;durP1;ratioP1;P2;durP2;ratioP2
9310;SDS011;4694;52.464;13.480;2023-07-24T00:00:16;3.67;;;2.53;;
9310;SDS011;4694;52.464;13.480;2023-07-24T00:02:43;3.40;;;2.30;;
9310;SDS011;4694;52.464;13.480;2023-07-24T00:05:09;7.50;;;3.45;;
9310;SDS011;4694;52.464;13.480;2023-07-24T00:07:36;2.83;;;2.50;;
9310;SDS011;4694;52.464;13.480;2023-07-24T00:10:04;2.85;;;2.40;;
9310;SDS011;4694;52.464;13.480;2023-07-24T00:12:32;6.85;;;2.45;;
9310;SDS011;4694;52.464;13.480;2023-07-24T00:14:59;5.35;;;2.45;;
9310;SDS011;4694;52.464;13.480;2023-07-24T00:17:25;3.83;;;2.28;;
9310;SDS011;4694;52.464;13.480;2023-07-24T00:19:52;2.40;;;2.10;;
9310;SDS011;4694;52.464;13.480;2023-07-24T00:22:18;4.93;;;2.17;;
9310;SDS011;4694;52.464;13.480;2023-07-24T00:24:45;7.80;;;1.98;;
9310;SDS011;4694;52.464;13.480;2023-07-24T00:27:13;3.97;;;1.88;;
9310;SDS011;4694;52.464;13.480;2023-07-24T00:29:40;1.92;;;1.67;;
9310;SDS011;4694;52.464;13.480;2023-07-24T00:32:07;3.40;;;2.50;;
9310;SDS011;4694;52.464;13.480;2023-07-24T00:34:34;3.60;;;2.33;;
9310;SDS011;4694;52.464;13.480;2023-07-24T00:37:01;4.22;;;2.42;;
9310;SDS011;4694;52.464;13.480;2023-07-24T00:39:27;3.00;;;2.00;;
9310;SDS011;4694;52.464;13.480;2023-07-24T00:41:54;3.75;;;2.50;;
9310;SDS011;4694;52.464;13.480;2023-07-24T00:44:22;3.50;;;2.60;;
9310;SDS011;4694;52.464;13.480;2023-07-24T00:46:49;3.22;;;2.10;;
9310;SDS011;4694;52.464;13.480;2023-07-24T00:49:15;3.17;;;2.00;;
9310;SDS011;4694;52.464;13.480;2023-07-24T00:51:43;3.40;;;2.42;;
9310;SDS011;4694;52.464;13.480;2023-07-24T00:54:10;3.58;;;2.25;;
9310;SDS011;4694;52.464;13.480;2023-07-24T00:56:40;3.53;;;2.47;;
9310;SDS011;4694;52.464;13.480;2023-07-24T00:59:06;2.78;;;2.40;;
9310;SDS011;4694;52.464;13.480;2023-07-24T01:01:34;4.22;;;2.58;;
9310;SDS011;4694;52.464;13.480;2023-07-24T01:04:03;3.28;;;2.40;;
9310;SDS011;4694;52.464;13.480;2023-07-24T01:06:31;4.90;;;2.05;;
9310;SDS011;4694;52.464;13.480;2023-07-24T01:08:58;3.17;;;2.10;;
9310;SDS011;4694;52.464;13.480;2023-07-24T01:14:47;4.07;;;2.08;;
9310;SDS011;4694;52.464;13.480;2023-07-24T01:17:20;4.55;;;2.20;;
9310;SDS011;4694;52.464;13.480;2023-07-24T01:19:51;4.78;;;2.65;;
9310;SDS011;4694;52.464;13.480;2023-07-24T01:22:21;2.92;;;2.65;;
9310;SDS011;4694;52.464;13.480;2023-07-24T01:25:00;3.55;;;2.35;;
9310;SDS011;4694;52.464;13.480;2023-07-24T01:27:32;4.40;;;2.05;;
9310;SDS011;4694;52.464;13.480;2023-07-24T01:29:59;2.80;;;2.17;;
9310;SDS011;4694;52.464;13.480;2023-07-24T01:32:27;4.65;;;1.98;;
9310;SDS011;4694;52.464;13.480;2023-07-24T01:34:54;3.58;;;1.95;;
9310;SDS011;4694;52.464;13.480;2023-07-24T01:37:20;1.40;;;1.10;;
9310;SDS011;4694;52.464;13.480;2023-07-24T01:39:50;11.57;;;2.85;;
9310;SDS011;4694;52.464;13.480;2023-07-24T01:42:18;3.13;;;2.30;;
9310;SDS011;4694;52.464;13.480;2023-07-24T01:44:51;7.05;;;2.90;;
9310;SDS011;4694;52.464;13.480;2023-07-24T01:47:18;6.65;;;2.60;;
9310;SDS011;4694;52.464;13.480;2023-07-24T01:49:44;4.72;;;2.55;;
9310;SDS011;4694;52.464;13.480;2023-07-24T01:52:11;5.75;;;2.65;;
9310;SDS011;4694;52.464;13.480;2023-07-24T01:54:38;3.22;;;2.05;;
9310;SDS011;4694;52.464;13.480;2023-07-24T01:57:05;4.35;;;2.60;;
9310;SDS011;4694;52.464;13.480;2023-07-24T01:59:31;4.22;;;2.42;;
9310;SDS011;4694;52.464;13.480;2023-07-24T02:01:59;4.93;;;3.25;;
9310;SDS011;4694;52.464;13.480;2023-07-24T02:04:26;6.95;;;2.67;;
9310;SDS011;4694;52.464;13.480;2023-07-24T02:06:52;3.97;;;2.10;;
9310;SDS011;4694;52.464;13.480;2023-07-24T02:09:18;3.47;;;2.28;;
9310;SDS011;4694;52.464;13.480;2023-07-24T02:11:45;4.75;;;2.88;;
9310;SDS011;4694;52.464;13.480;2023-07-24T02:14:12;5.50;;;2.70;;
9310;SDS011;4694;52.464;13.480;2023-07-24T02:16:41;4.07;;;2.07;;
9310;SDS011;4694;52.464;13.480;2023-07-24T02:19:09;6.60;;;3.00;;
9310;SDS011;4694;52.464;13.480;2023-07-24T02:21:36;5.13;;;2.28;;
9310;SDS011;4694;52.464;13.480;2023-07-24T02:24:03;3.15;;;2.10;;
9310;SDS011;4694;52.464;13.480;2023-07-24T02:26:30;4.95;;;2.08;;
9310;SDS011;4694;52.464;13.480;2023-07-24T02:28:56;4.07;;;2.10;;
9310;SDS011;4694;52.464;13.480;2023-07-24T02:31:23;7.25;;;2.28;;
9310;SDS011;4694;52.464;13.480;2023-07-24T02:33:50;4.57;;;2.58;;
9310;SDS011;4694;52.464;13.480;2023-07-24T02:36:18;6.70;;;1.70;;
9310;SDS011;4694;52.464;13.480;2023-07-24T02:38:44;4.13;;;1.55;;
9310;SDS011;4694;52.464;13.480;2023-07-24T02:41:11;3.28;;;1.92;;
9310;SDS011;4694;52.464;13.480;2023-07-24T02:43:37;4.60;;;2.83;;
9310;SDS011;4694;52.464;13.480;2023-07-24T02:46:04;3.20;;;1.98;;
9310;SDS011;4694;52.464;13.480;2023-07-24T02:48:31;4.80;;;2.10;;
9310;SDS011;4694;52.464;13.480;2023-07-24T02:50:57;2.90;;;1.92;;
9310;SDS011;4694;52.464;13.480;2023-07-24T02:53:25;2.65;;;1.95;;
9310;SDS011;4694;52.464;13.480;2023-07-24T02:55:52;2.17;;;1.70;;
9310;SDS011;4694;52.464;13.480;2023-07-24T02:58:18;3.85;;;1.75;;
9310;SDS011;4694;52.464;13.480;2023-07-24T03:00:45;7.03;;;3.13;;
9310;SDS011;4694;52.464;13.480;2023-07-24T03:03:12;2.63;;;1.40;;
9310;SDS011;4694;52.464;13.480;2023-07-24T03:05:38;3.00;;;1.67;;
9310;SDS011;4694;52.464;13.480;2023-07-24T03:08:05;2.47;;;1.52;;
9310;SDS011;4694;52.464;13.480;2023-07-24T03:10:33;5.25;;;1.48;;
9310;SDS011;4694;52.464;13.480;2023-07-24T03:13:00;5.85;;;1.67;;
9310;SDS011;4694;52.464;13.480;2023-07-24T03:15:25;3.20;;;1.42;;
9310;SDS011;4694;52.464;13.480;2023-07-24T03:17:52;18.00;;;1.70;;
9310;SDS011;4694;52.464;13.480;2023-07-24T03:20:19;2.03;;;1.23;;
9310;SDS011;4694;52.464;13.480;2023-07-24T03:22:46;4.38;;;1.88;;
9310;SDS011;4694;52.464;13.480;2023-07-24T03:25:13;3.10;;;1.60;;
9310;SDS011;4694;52.464;13.480;2023-07-24T03:27:41;2.63;;;1.65;;
9310;SDS011;4694;52.464;13.480;2023-07-24T03:30:08;5.13;;;1.95;;
9310;SDS011;4694;52.464;13.480;2023-07-24T03:32:35;3.28;;;1.92;;
9310;SDS011;4694;52.464;13.480;2023-07-24T03:35:02;7.63;;;1.45;;
9310;SDS011;4694;52.464;13.480;2023-07-24T03:37:29;2.88;;;1.55;;
9310;SDS011;4694;52.464;13.480;2023-07-24T03:39:56;2.67;;;1.60;;
9310;SDS011;4694;52.464;13.480;2023-07-24T03:42:26;2.33;;;1.35;;
9310;SDS011;4694;52.464;13.480;2023-07-24T03:44:55;4.30;;;1.77;;
9310;SDS011;4694;52.464;13.480;2023-07-24T03:47:23;3.38;;;1.90;;
9310;SDS011;4694;52.464;13.480;2023-07-24T03:49:50;2.60;;;1.40;;
9310;SDS011;4694;52.464;13.480;2023-07-24T03:52:17;1.98;;;1.23;;
9310;SDS011;4694;52.464;13.480;2023-07-24T03:54:44;1.42;;;1.27;;
9310;SDS011;4694;52.464;13.480;2023-07-24T03:57:11;2.80;;;1.38;;
9310;SDS011;4694;52.464;13.480;2023-07-24T03:59:37;2.20;;;1.60;;
9310;SDS011;4694;52.464;13.480;2023-07-24T04:02:05;2.25;;;1.15;;
9310;SDS011;4694;52.464;13.480;2023-07-24T04:04:32;2.95;;;1.23;;
9310;SDS011;4694;52.464;13.480;2023-07-24T04:06:59;3.58;;;1.10;;
9310;SDS011;4694;52.464;13.480;2023-07-24T04:09:25;1.52;;;0.93;;
9310;SDS011;4694;52.464;13.480;2023-07-24T04:11:52;3.65;;;1.45;;
9310;SDS011;4694;52.464;13.480;2023-07-24T04:14:19;2.90;;;1.30;;
9310;SDS011;4694;52.464;13.480;2023-07-24T04:16:45;3.45;;;2.35;;
9310;SDS011;4694;52.464;13.480;2023-07-24T04:19:13;3.30;;;1.75;;
9310;SDS011;4694;52.464;13.480;2023-07-24T04:21:40;2.88;;;1.05;;
9310;SDS011;4694;52.464;13.480;2023-07-24T04:24:09;1.75;;;1.38;;
9310;SDS011;4694;52.464;13.480;2023-07-24T04:26:36;1.98;;;1.40;;
9310;SDS011;4694;52.464;13.480;2023-07-24T04:29:04;2.63;;;1.13;;
9310;SDS011;4694;52.464;13.480;2023-07-24T04:31:31;3.28;;;1.50;;
9310;SDS011;4694;52.464;13.480;2023-07-24T04:33:57;1.52;;;1.15;;
9310;SDS011;4694;52.464;13.480;2023-07-24T04:36:25;4.60;;;1.20;;
9310;SDS011;4694;52.464;13.480;2023-07-24T04:38:52;2.60;;;0.85;;
9310;SDS011;4694;52.464;13.480;2023-07-24T04:41:18;2.10;;;0.90;;
9310;SDS011;4694;52.464;13.480;2023-07-24T04:43:45;3.63;;;0.85;;
9310;SDS011;4694;52.464;13.480;2023-07-24T04:46:12;2.78;;;1.05;;
9310;SDS011;4694;52.464;13.480;2023-07-24T04:48:38;2.33;;;1.35;;
9310;SDS011;4694;52.464;13.480;2023-07-24T04:51:05;1.95;;;1.00;;
9310;SDS011;4694;52.464;13.480;2023-07-24T04:53:33;1.52;;;1.17;;
9310;SDS011;4694;52.464;13.480;2023-07-24T04:55:59;2.05;;;1.00;;
9310;SDS011;4694;52.464;13.480;2023-07-24T04:58:26;3.65;;;1.00;;
9310;SDS011;4694;52.464;13.480;2023-07-24T05:00:53;1.27;;;0.90;;
9310;SDS011;4694;52.464;13.480;2023-07-24T05:03:19;3.33;;;0.90;;
9310;SDS011;4694;52.464;13.480;2023-07-24T05:05:47;6.63;;;0.70;;
9310;SDS011;4694;52.464;13.480;2023-07-24T05:08:15;1.75;;;0.85;;
9310;SDS011;4694;52.464;13.480;2023-07-24T05:10:43;2.72;;;0.95;;
9310;SDS011;4694;52.464;13.480;2023-07-24T05:13:10;3.92;;;1.27;;
9310;SDS011;4694;52.464;13.480;2023-07-24T05:15:36;1.17;;;0.63;;
9310;SDS011;4694;52.464;13.480;2023-07-24T05:18:03;2.22;;;0.80;;
9310;SDS011;4694;52.464;13.480;2023-07-24T05:20:30;2.78;;;0.75;;
9310;SDS011;4694;52.464;13.480;2023-07-24T05:22:56;3.28;;;0.73;;
9310;SDS011;4694;52.464;13.480;2023-07-24T05:25:23;5.45;;;1.60;;
9310;SDS011;4694;52.464;13.480;2023-07-24T05:27:51;2.33;;;0.93;;
9310;SDS011;4694;52.464;13.480;2023-07-24T05:30:17;0.88;;;0.70;;
9310;SDS011;4694;52.464;13.480;2023-07-24T05:32:44;0.77;;;0.50;;
9310;SDS011;4694;52.464;13.480;2023-07-24T05:35:11;0.73;;;0.68;;
9310;SDS011;4694;52.464;13.480;2023-07-24T05:37:37;2.65;;;0.90;;
9310;SDS011;4694;52.464;13.480;2023-07-24T05:40:04;3.63;;;0.73;;
9310;SDS011;4694;52.464;13.480;2023-07-24T05:42:32;1.00;;;0.60;;
9310;SDS011;4694;52.464;13.480;2023-07-24T05:45:06;2.25;;;1.45;;
9310;SDS011;4694;52.464;13.480;2023-07-24T05:47:33;1.30;;;0.70;;
9310;SDS011;4694;52.464;13.480;2023-07-24T05:50:00;3.30;;;0.77;;
9310;SDS011;4694;52.464;13.480;2023-07-24T05:52:27;2.20;;;0.90;;
9310;SDS011;4694;52.464;13.480;2023-07-24T05:54:54;0.90;;;0.80;;
9310;SDS011;4694;52.464;13.480;2023-07-24T05:57:24;1.10;;;0.90;;
9310;SDS011;4694;52.464;13.480;2023-07-24T05:59:51;4.00;;;0.73;;
9310;SDS011;4694;52.464;13.480;2023-07-24T06:02:19;1.50;;;1.00;;
9310;SDS011;4694;52.464;13.480;2023-07-24T06:04:45;1.50;;;1.23;;
9310;SDS011;4694;52.464;13.480;2023-07-24T06:07:12;1.65;;;0.88;;
9310;SDS011;4694;52.464;13.480;2023-07-24T06:09:39;1.83;;;0.95;;
9310;SDS011;4694;52.464;13.480;2023-07-24T06:12:06;3.13;;;1.08;;
9310;SDS011;4694;52.464;13.480;2023-07-24T06:14:33;1.98;;;1.20;;
9310;SDS011;4694;52.464;13.480;2023-07-24T06:16:59;3.42;;;1.27;;
9310;SDS011;4694;52.464;13.480;2023-07-24T06:19:27;3.97;;;2.28;;
9310;SDS011;4694;52.464;13.480;2023-07-24T06:21:54;2.13;;;1.48;;
9310;SDS011;4694;52.464;13.480;2023-07-24T06:24:21;2.17;;;1.80;;
9310;SDS011;4694;52.464;13.480;2023-07-24T06:26:49;1.48;;;1.38;;
9310;SDS011;4694;52.464;13.480;2023-07-24T06:29:16;1.55;;;1.45;;
9310;SDS011;4694;52.464;13.480;2023-07-24T06:31:43;2.47;;;1.17;;
9310;SDS011;4694;52.464;13.480;2023-07-24T06:34:10;2.28;;;1.05;;
9310;SDS011;4694;52.464;13.480;2023-07-24T06:36:38;3.13;;;1.40;;
9310;SDS011;4694;52.464;13.480;2023-07-24T06:39:06;1.75;;;1.30;;
9310;SDS011;4694;52.464;13.480;2023-07-24T06:41:33;3.60;;;2.20;;
9310;SDS011;4694;52.464;13.480;2023-07-24T06:44:00;2.33;;;1.05;;
9310;SDS011;4694;52.464;13.480;2023-07-24T06:46:26;2.22;;;1.55;;
9310;SDS011;4694;52.464;13.480;2023-07-24T06:48:53;1.52;;;1.38;;
9310;SDS011;4694;52.464;13.480;2023-07-24T06:51:19;2.72;;;1.70;;
9310;SDS011;4694;52.464;13.480;2023-07-24T06:53:47;1.98;;;1.30;;
9310;SDS011;4694;52.464;13.480;2023-07-24T06:56:14;2.33;;;1.35;;
9310;SDS011;4694;52.464;13.480;2023-07-24T06:58:41;1.77;;;1.42;;
9310;SDS011;4694;52.464;13.480;2023-07-24T07:01:08;1.83;;;1.40;;
9310;SDS011;4694;52.464;13.480;2023-07-24T07:03:35;1.70;;;1.42;;
9310;SDS011;4694;52.464;13.480;2023-07-24T07:06:02;2.78;;;1.30;;
9310;SDS011;4694;52.464;13.480;2023-07-24T07:08:29;1.85;;;1.60;;
9310;SDS011;4694;52.464;13.480;2023-07-24T07:10:57;2.22;;;1.20;;
9310;SDS011;4694;52.464;13.480;2023-07-24T07:13:25;1.38;;;1.13;;
9310;SDS011;4694;52.464;13.480;2023-07-24T07:15:51;2.67;;;2.38;;
9310;SDS011;4694;52.464;13.480;2023-07-24T07:18:18;2.15;;;1.63;;
9310;SDS011;4694;52.464;13.480;2023-07-24T07:20:45;1.50;;;1.27;;
9310;SDS011;4694;52.464;13.480;2023-07-24T07:23:12;1.85;;;1.65;;
9310;SDS011;4694;52.464;13.480;2023-07-24T07:25:39;2.03;;;1.67;;
9310;SDS011;4694;52.464;13.480;2023-07-24T07:28:09;2.47;;;1.77;;
9310;SDS011;4694;52.464;13.480;2023-07-24T07:30:36;2.08;;;1.80;;
9310;SDS011;4694;52.464;13.480;2023-07-24T07:33:03;1.73;;;1.63;;
9310;SDS011;4694;52.464;13.480;2023-07-24T07:35:30;3.00;;;1.63;;
9310;SDS011;4694;52.464;13.480;2023-07-24T07:37:57;1.73;;;1.58;;
9310;SDS011;4694;52.464;13.480;2023-07-24T07:40:24;2.10;;;1.70;;
9310;SDS011;4694;52.464;13.480;2023-07-24T07:42:51;2.20;;;1.80;;
9310;SDS011;4694;52.464;13.480;2023-07-24T07:45:20;2.17;;;1.38;;
9310;SDS011;4694;52.464;13.480;2023-07-24T07:47:46;2.78;;;2.10;;
9310;SDS011;4694;52.464;13.480;2023-07-24T07:50:13;1.92;;;1.63;;
9310;SDS011;4694;52.464;13.480;2023-07-24T07:52:40;2.70;;;2.03;;
9310;SDS011;4694;52.464;13.480;2023-07-24T07:55:07;1.42;;;1.33;;
9310;SDS011;4694;52.464;13.480;2023-07-24T07:57:34;2.47;;;2.08;;
9310;SDS011;4694;52.464;13.480;2023-07-24T08:00:01;1.55;;;1.40;;
9310;SDS011;4694;52.464;13.480;2023-07-24T08:02:29;1.33;;;1.23;;
9310;SDS011;4694;52.464;13.480;2023-07-24T08:04:57;1.63;;;1.30;;
9310;SDS011;4694;52.464;13.480;2023-07-24T08:07:23;2.15;;;2.00;;
9310;SDS011;4694;52.464;13.480;2023-07-24T08:09:50;1.77;;;1.42;;
9310;SDS011;4694;52.464;13.480;2023-07-24T08:12:18;1.48;;;1.02;;
9310;SDS011;4694;52.464;13.480;2023-07-24T08:14:46;2.85;;;1.65;;
9310;SDS011;4694;52.464;13.480;2023-07-24T08:17:13;2.05;;;1.27;;
9310;SDS011;4694;52.464;13.480;2023-07-24T08:19:41;1.27;;;1.17;;
9310;SDS011;4694;52.464;13.480;2023-07-24T08:22:08;1.25;;;1.15;;
9310;SDS011;4694;52.464;13.480;2023-07-24T08:24:35;2.65;;;1.73;;
9310;SDS011;4694;52.464;13.480;2023-07-24T08:27:02;1.38;;;1.27;;
9310;SDS011;4694;52.464;13.480;2023-07-24T08:29:29;1.38;;;1.27;;
9310;SDS011;4694;52.464;13.480;2023-07-24T08:31:56;1.50;;;1.40;;
9310;SDS011;4694;52.464;13.480;2023-07-24T08:34:23;1.40;;;1.20;;
9310;SDS011;4694;52.464;13.480;2023-07-24T08:36:51;1.98;;;1.30;;
9310;SDS011;4694;52.464;13.480;2023-07-24T08:39:18;1.38;;;1.13;;
9310;SDS011;4694;52.464;13.480;2023-07-24T08:41:44;1.80;;;1.40;;
9310;SDS011;4694;52.464;13.480;2023-07-24T08:44:11;2.75;;;1.15;;
9310;SDS011;4694;52.464;13.480;2023-07-24T08:46:38;1.13;;;0.93;;
9310;SDS011;4694;52.464;13.480;2023-07-24T08:49:09;1.80;;;0.90;;
9310;SDS011;4694;52.464;13.480;2023-07-24T08:51:37;0.85;;;0.85;;
9310;SDS011;4694;52.464;13.480;2023-07-24T08:54:07;2.42;;;1.33;;
9310;SDS011;4694;52.464;13.480;2023-07-24T08:56:34;1.20;;;0.80;;
9310;SDS011;4694;52.464;13.480;2023-07-24T08:59:02;1.58;;;1.20;;
9310;SDS011;4694;52.464;13.480;2023-07-24T09:01:29;1.60;;;1.33;;
9310;SDS011;4694;52.464;13.480;2023-07-24T09:03:56;2.80;;;1.00;;
9310;SDS011;4694;52.464;13.480;2023-07-24T09:06:23;1.95;;;1.10;;
9310;SDS011;4694;52.464;13.480;2023-07-24T09:08:53;5.18;;;1.15;;
9310;SDS011;4694;52.464;13.480;2023-07-24T09:11:21;1.67;;;1.10;;
9310;SDS011;4694;52.464;13.480;2023-07-24T09:13:48;1.17;;;1.00;;
9310;SDS011;4694;52.464;13.480;2023-07-24T09:16:21;1.30;;;1.20;;
9310;SDS011;4694;52.464;13.480;2023-07-24T09:18:49;4.07;;;1.30;;
9310;SDS011;4694;52.464;13.480;2023-07-24T09:21:26;1.50;;;0.88;;
9310;SDS011;4694;52.464;13.480;2023-07-24T09:23:54;1.95;;;1.00;;
9310;SDS011;4694;52.464;13.480;2023-07-24T09:26:23;1.30;;;1.20;;
9310;SDS011;4694;52.464;13.480;2023-07-24T09:28:54;2.15;;;1.70;;
9310;SDS011;4694;52.464;13.480;2023-07-24T09:31:20;2.28;;;1.42;;
9310;SDS011;4694;52.464;13.480;2023-07-24T09:33:47;1.75;;;1.20;;
9310;SDS011;4694;52.464;13.480;2023-07-24T09:36:14;1.10;;;0.82;;
9310;SDS011;4694;52.464;13.480;2023-07-24T09:38:40;2.95;;;1.25;;
9310;SDS011;4694;52.464;13.480;2023-07-24T09:41:07;1.20;;;1.10;;
9310;SDS011;4694;52.464;13.480;2023-07-24T09:43:38;3.25;;;0.90;;
9310;SDS011;4694;52.464;13.480;2023-07-24T09:46:05;3.63;;;1.88;;
9310;SDS011;4694;52.464;13.480;2023-07-24T09:48:32;3.33;;;2.05;;
9310;SDS011;4694;52.464;13.480;2023-07-24T09:51:00;1.35;;;1.20;;
9310;SDS011;4694;52.464;13.480;2023-07-24T09:53:31;2.50;;;1.65;;
9310;SDS011;4694;52.464;13.480;2023-07-24T09:56:01;1.10;;;0.98;;
9310;SDS011;4694;52.464;13.480;2023-07-24T09:58:28;3.40;;;1.67;;
9310;SDS011;4694;52.464;13.480;2023-07-24T10:00:59;2.80;;;1.33;;
9310;SDS011;4694;52.464;13.480;2023-07-24T10:03:27;2.53;;;1.27;;
9310;SDS011;4694;52.464;13.480;2023-07-24T10:05:54;2.42;;;1.70;;
9310;SDS011;4694;52.464;13.480;2023-07-24T10:08:21;2.75;;;1.60;;
9310;SDS011;4694;52.464;13.480;2023-07-24T10:10:50;2.17;;;1.38;;
9310;SDS011;4694;52.464;13.480;2023-07-24T10:13:18;2.47;;;2.00;;
9310;SDS011;4694;52.464;13.480;2023-07-24T10:15:46;2.30;;;1.65;;
9310;SDS011;4694;52.464;13.480;2023-07-24T10:18:16;2.88;;;2.28;;
9310;SDS011;4694;52.464;13.480;2023-07-24T10:20:44;1.92;;;1.50;;
9310;SDS011;4694;52.464;13.480;2023-07-24T10:23:11;2.63;;;1.40;;
9310;SDS011;4694;52.464;13.480;2023-07-24T10:25:44;3.72;;;1.95;;
9310;SDS011;4694;52.464;13.480;2023-07-24T10:28:11;3.78;;;2.60;;
9310;SDS011;4694;52.464;13.480;2023-07-24T10:33:09;5.13;;;2.10;;
9310;SDS011;4694;52.464;13.480;2023-07-24T10:35:39;2.40;;;2.20;;
9310;SDS011;4694;52.464;13.480;2023-07-24T10:38:06;5.95;;;2.42;;
9310;SDS011;4694;52.464;13.480;2023-07-24T10:40:33;2.33;;;1.80;;
9310;SDS011;4694;52.464;13.480;2023-07-24T10:43:01;2.45;;;2.00;;
9310;SDS011;4694;52.464;13.480;2023-07-24T10:45:41;2.50;;;2.30;;
9310;SDS011;4694;52.464;13.480;2023-07-24T10:48:09;3.17;;;2.03;;
9310;SDS011;4694;52.464;13.480;2023-07-24T10:50:39;3.47;;;2.57;;
9310;SDS011;4694;52.464;13.480;2023-07-24T10:53:07;5.15;;;2.75;;
9310;SDS011;4694;52.464;13.480;2023-07-24T10:55:34;5.93;;;2.88;;
9310;SDS011;4694;52.464;13.480;2023-07-24T10:58:01;6.40;;;2.33;;
9310;SDS011;4694;52.464;13.480;2023-07-24T11:00:28;3.40;;;2.72;;
9310;SDS011;4694;52.464;13.480;2023-07-24T11:02:55;6.05;;;3.15;;
9310;SDS011;4694;52.464;13.480;2023-07-24T11:05:22;4.68;;;2.50;;
9310;SDS011;4694;52.464;13.480;2023-07-24T11:07:50;2.72;;;2.38;;
9310;SDS011;4694;52.464;13.480;2023-07-24T11:10:17;5.93;;;2.63;;
9310;SDS011;4694;52.464;13.480;2023-07-24T11:12:44;4.43;;;2.78;;
9310;SDS011;4694;52.464;13.480;2023-07-24T11:15:12;4.43;;;3.22;;
9310;SDS011;4694;52.464;13.480;2023-07-24T11:17:40;4.22;;;3.15;;
9310;SDS011;4694;52.464;13.480;2023-07-24T11:20:08;4.13;;;3.08;;
9310;SDS011;4694;52.464;13.480;2023-07-24T11:22:37;5.45;;;3.10;;
9310;SDS011;4694;52.464;13.480;2023-07-24T11:25:07;3.13;;;2.67;;
9310;SDS011;4694;52.464;13.480;2023-07-24T11:27:37;2.72;;;2.38;;
9310;SDS011;4694;52.464;13.480;2023-07-24T11:30:09;4.25;;;2.72;;
9310;SDS011;4694;52.464;13.480;2023-07-24T11:32:37;3.45;;;3.05;;
9310;SDS011;4694;52.464;13.480;2023-07-24T11:35:05;3.78;;;3.17;;
9310;SDS011;4694;52.464;13.480;2023-07-24T11:37:33;3.55;;;2.88;;
9310;SDS011;4694;52.464;13.480;2023-07-24T11:40:01;4.18;;;2.80;;
9310;SDS011;4694;52.464;13.480;2023-07-24T11:42:31;3.55;;;2.72;;
9310;SDS011;4694;52.464;13.480;2023-07-24T11:45:00;4.43;;;2.78;;
9310;SDS011;4694;52.464;13.480;2023-07-24T11:47:28;5.65;;;3.85;;
9310;SDS011;4694;52.464;13.480;2023-07-24T11:49:56;3.47;;;3.17;;
9310;SDS011;4694;52.464;13.480;2023-07-24T11:52:24;4.25;;;3.25;;
9310;SDS011;4694;52.464;13.480;2023-07-24T11:54:56;4.85;;;3.42;;
9310;SDS011;4694;52.464;13.480;2023-07-24T11:57:25;4.65;;;3.45;;
9310;SDS011;4694;52.464;13.480;2023-07-24T11:59:54;3.47;;;3.13;;
9310;SDS011;4694;52.464;13.480;2023-07-24T12:02:22;3.75;;;3.25;;
9310;SDS011;4694;52.464;13.480;2023-07-24T12:04:53;6.63;;;3.70;;
9310;SDS011;4694;52.464;13.480;2023-07-24T12:07:23;4.35;;;2.85;;
9310;SDS011;4694;52.464;13.480;2023-07-24T12:09:50;7.05;;;3.60;;
9310;SDS011;4694;52.464;13.480;2023-07-24T12:12:18;5.00;;;3.25;;
9310;SDS011;4694;52.464;13.480;2023-07-24T12:14:44;8.23;;;4.78;;
9310;SDS011;4694;52.464;13.480;2023-07-24T12:17:17;4.57;;;3.70;;
9310;SDS011;4694;52.464;13.480;2023-07-24T12:19:45;6.88;;;3.95;;
9310;SDS011;4694;52.464;13.480;2023-07-24T12:22:12;4.72;;;3.72;;
9310;SDS011;4694;52.464;13.480;2023-07-24T12:24:38;4.60;;;3.85;;
9310;SDS011;4694;52.464;13.480;2023-07-24T12:27:05;5.88;;;3.53;;
9310;SDS011;4694;52.464;13.480;2023-07-24T12:29:32;4.35;;;3.55;;
9310;SDS011;4694;52.464;13.480;2023-07-24T12:31:58;5.68;;;3.47;;
9310;SDS011;4694;52.464;13.480;2023-07-24T12:34:27;6.28;;;3.58;;
9310;SDS011;4694;52.464;13.480;2023-07-24T12:36:53;6.15;;;3.50;;
9310;SDS011;4694;52.464;13.480;2023-07-24T12:39:20;4.30;;;3.50;;
9310;SDS011;4694;52.464;13.480;2023-07-24T12:41:47;4.05;;;2.78;;
9310;SDS011;4694;52.464;13.480;2023-07-24T12:44:13;6.40;;;3.72;;
9310;SDS011;4694;52.464;13.480;2023-07-24T12:46:40;6.68;;;3.33;;
9310;SDS011;4694;52.464;13.480;2023-07-24T12:49:07;5.85;;;3.20;;
9310;SDS011;4694;52.464;13.480;2023-07-24T12:51:35;7.45;;;3.13;;
9310;SDS011;4694;52.464;13.480;2023-07-24T12:54:02;5.93;;;3.55;;
9310;SDS011;4694;52.464;13.480;2023-07-24T12:56:29;4.75;;;3.10;;
9310;SDS011;4694;52.464;13.480;2023-07-24T12:58:55;3.78;;;2.50;;
9310;SDS011;4694;52.464;13.480;2023-07-24T13:01:22;5.13;;;3.08;;
9310;SDS011;4694;52.464;13.480;2023-07-24T13:03:50;8.18;;;3.60;;
9310;SDS011;4694;52.464;13.480;2023-07-24T13:06:16;6.13;;;3.92;;
9310;SDS011;4694;52.464;13.480;2023-07-24T13:08:44;5.55;;;2.85;;
9310;SDS011;4694;52.464;13.480;2023-07-24T13:11:11;5.78;;;2.95;;
9310;SDS011;4694;52.464;13.480;2023-07-24T13:13:37;5.72;;;3.22;;
9310;SDS011;4694;52.464;13.480;2023-07-24T13:16:04;3.83;;;3.13;;
9310;SDS011;4694;52.464;13.480;2023-07-24T13:18:31;3.90;;;2.88;;
9310;SDS011;4694;52.464;13.480;2023-07-24T13:20:57;3.60;;;2.90;;
9310;SDS011;4694;52.464;13.480;2023-07-24T13:23:24;5.00;;;3.28;;
9310;SDS011;4694;52.464;13.480;2023-07-24T13:25:52;4.32;;;2.95;;
9310;SDS011;4694;52.464;13.480;2023-07-24T13:28:19;5.57;;;3.03;;
9310;SDS011;4694;52.464;13.480;2023-07-24T13:30:46;5.18;;;2.78;;
9310;SDS011;4694;52.464;13.480;2023-07-24T13:33:12;4.68;;;2.60;;
9310;SDS011;4694;52.464;13.480;2023-07-24T13:35:39;3.55;;;2.63;;
9310;SDS011;4694;52.464;13.480;2023-07-24T13:38:06;3.53;;;2.42;;
9310;SDS011;4694;52.464;13.480;2023-07-24T13:40:34;6.20;;;2.88;;
9310;SDS011;4694;52.464;13.480;2023-07-24T13:43:02;5.65;;;2.42;;
9310;SDS011;4694;52.464;13.480;2023-07-24T13:45:30;4.60;;;2.70;;
9310;SDS011;4694;52.464;13.480;2023-07-24T13:47:57;5.03;;;2.22;;
9310;SDS011;4694;52.464;13.480;2023-07-24T13:50:24;3.92;;;2.33;;
9310;SDS011;4694;52.464;13.480;2023-07-24T13:52:50;6.93;;;2.42;;
9310;SDS011;4694;52.464;13.480;2023-07-24T13:55:18;6.05;;;2.55;;
9310;SDS011;4694;52.464;13.480;2023-07-24T13:57:45;3.53;;;2.70;;
9310;SDS011;4694;52.464;13.480;2023-07-24T14:00:13;4.53;;;2.90;;
9310;SDS011;4694;52.464;13.480;2023-07-24T14:02:40;5.57;;;2.72;;
9310;SDS011;4694;52.464;13.480;2023-07-24T14:05:08;3.55;;;2.35;;
9310;SDS011;4694;52.464;13.480;2023-07-24T14:07:34;4.97;;;2.92;;
9310;SDS011;4694;52.464;13.480;2023-07-24T14:10:01;3.72;;;2.50;;
9310;SDS011;4694;52.464;13.480;2023-07-24T14:12:28;3.63;;;2.42;;
9310;SDS011;4694;52.464;13.480;2023-07-24T14:14:55;6.28;;;2.97;;
9310;SDS011;4694;52.464;13.480;2023-07-24T14:17:23;4.85;;;3.35;;
9310;SDS011;4694;52.464;13.480;2023-07-24T14:19:50;3.90;;;2.25;;
9310;SDS011;4694;52.464;13.480;2023-07-24T14:22:16;5.88;;;2.83;;
9310;SDS011;4694;52.464;13.480;2023-07-24T14:24:43;6.35;;;2.60;;
9310;SDS011;4694;52.464;13.480;2023-07-24T14:27:13;3.95;;;2.35;;
9310;SDS011;4694;52.464;13.480;2023-07-24T14:29:40;3.90;;;2.78;;
9310;SDS011;4694;52.464;13.480;2023-07-24T14:32:06;3.78;;;2.60;;
9310;SDS011;4694;52.464;13.480;2023-07-24T14:34:35;3.53;;;2.90;;
9310;SDS011;4694;52.464;13.480;2023-07-24T14:37:01;3.63;;;2.30;;
9310;SDS011;4694;52.464;13.480;2023-07-24T14:39:28;4.63;;;2.78;;
9310;SDS011;4694;52.464;13.480;2023-07-24T14:41:54;3.80;;;2.60;;
9310;SDS011;4694;52.464;13.480;2023-07-24T14:44:21;4.50;;;3.20;;
9310;SDS011;4694;52.464;13.480;2023-07-24T14:46:48;3.47;;;2.72;;
9310;SDS011;4694;52.464;13.480;2023-07-24T14:49:14;4.38;;;2.85;;
9310;SDS011;4694;52.464;13.480;2023-07-24T14:51:42;6.50;;;2.33;;
9310;SDS011;4694;52.464;13.480;2023-07-24T14:54:09;6.53;;;3.33;;
9310;SDS011;4694;52.464;13.480;2023-07-24T14:56:36;5.22;;;3.42;;
9310;SDS011;4694;52.464;13.480;2023-07-24T14:59:02;3.85;;;2.72;;
9310;SDS011;4694;52.464;13.480;2023-07-24T15:01:29;4.07;;;2.30;;
9310;SDS011;4694;52.464;13.480;2023-07-24T15:03:56;4.47;;;2.63;;
9310;SDS011;4694;52.464;13.480;2023-07-24T15:06:22;8.95;;;2.95;;